createdAt,value
2017-08-20T00:01:00.324Z,18.05
2017-08-20T00:03:27.743Z,17.98
2017-08-20T00:05:55.131Z,17.90
2017-08-20T00:08:22.775Z,17.74
2017-08-20T00:10:50.196Z,17.80
2017-08-20T00:13:17.665Z,17.86
2017-08-20T00:15:45.041Z,17.89
2017-08-20T00:18:12.650Z,17.78
2017-08-20T00:20:40.035Z,17.73
2017-08-20T00:23:07.435Z,17.78
2017-08-20T00:25:34.827Z,17.78
2017-08-20T00:28:02.227Z,17.69
2017-08-20T00:30:29.655Z,17.78
2017-08-20T00:32:57.038Z,17.46
2017-08-20T00:35:24.442Z,17.34
2017-08-20T00:37:51.843Z,17.47
2017-08-20T00:40:19.470Z,17.46
2017-08-20T00:42:46.860Z,17.51
2017-08-20T00:45:14.488Z,17.50
2017-08-20T00:47:41.874Z,17.52
2017-08-20T00:50:09.264Z,17.49
2017-08-20T00:52:36.663Z,17.54
2017-08-20T00:55:04.069Z,17.57
2017-08-20T00:57:31.463Z,17.56
2017-08-20T00:59:58.860Z,17.60
2017-08-20T01:02:26.283Z,17.51
2017-08-20T01:04:53.679Z,17.52
2017-08-20T01:07:21.087Z,17.49
2017-08-20T01:09:48.487Z,17.56
2017-08-20T01:12:15.891Z,17.46
2017-08-20T01:14:46.211Z,17.45
2017-08-20T01:17:13.595Z,17.48
2017-08-20T01:19:40.997Z,17.46
2017-08-20T01:22:08.393Z,17.42
2017-08-20T01:24:35.787Z,17.51
2017-08-20T01:27:03.183Z,17.63
2017-08-20T01:29:30.574Z,17.56
2017-08-20T01:31:57.991Z,17.56
2017-08-20T01:34:25.383Z,17.65
2017-08-20T01:36:52.787Z,17.76
2017-08-20T01:39:20.188Z,17.68
2017-08-20T01:41:47.583Z,17.75
2017-08-20T01:44:14.992Z,17.55
2017-08-20T01:46:42.375Z,17.62
2017-08-20T01:49:09.778Z,17.63
2017-08-20T01:51:37.170Z,17.56
2017-08-20T01:54:04.566Z,17.67
2017-08-20T01:56:31.961Z,17.66
2017-08-20T01:58:59.355Z,17.68
2017-08-20T02:01:26.753Z,17.72
2017-08-20T02:03:54.134Z,17.71
2017-08-20T02:06:21.539Z,17.67
2017-08-20T02:08:48.935Z,17.71
2017-08-20T02:11:16.332Z,17.68
2017-08-20T02:13:43.726Z,17.77
2017-08-20T02:16:11.146Z,17.76
2017-08-20T02:18:38.532Z,17.80
2017-08-20T02:21:05.926Z,17.76
2017-08-20T02:23:33.318Z,17.71
2017-08-20T02:26:00.701Z,17.74
2017-08-20T02:28:28.087Z,17.71
2017-08-20T02:30:55.495Z,17.71
2017-08-20T02:33:22.883Z,17.70
2017-08-20T02:35:50.359Z,17.67
2017-08-20T02:38:17.730Z,17.74
2017-08-20T02:40:45.134Z,17.76
2017-08-20T02:43:12.550Z,17.76
2017-08-20T02:45:39.946Z,17.71
2017-08-20T02:48:07.352Z,17.73
2017-08-20T02:50:34.734Z,17.78
2017-08-20T02:53:02.136Z,17.80
2017-08-20T02:55:29.735Z,17.80
2017-08-20T02:57:57.134Z,17.77
2017-08-20T03:00:24.535Z,17.51
2017-08-20T03:02:51.938Z,17.51
2017-08-20T03:05:19.327Z,17.54
2017-08-20T03:07:46.735Z,17.54
2017-08-20T03:10:14.118Z,17.55
2017-08-20T03:12:41.736Z,17.28
2017-08-20T03:15:09.127Z,17.34
2017-08-20T03:17:36.538Z,17.34
2017-08-20T03:20:03.947Z,17.41
2017-08-20T03:22:31.349Z,17.46
2017-08-20T03:24:58.735Z,17.43
2017-08-20T03:27:26.137Z,17.41
2017-08-20T03:29:53.532Z,17.37
2017-08-20T03:32:20.947Z,17.38
2017-08-20T03:34:48.342Z,17.44
2017-08-20T03:37:15.730Z,17.42
2017-08-20T03:39:43.131Z,17.43
2017-08-20T03:42:29.675Z,17.51
2017-08-20T03:44:57.064Z,17.53
2017-08-20T03:47:24.691Z,17.47
2017-08-20T03:49:52.084Z,17.48
2017-08-20T03:52:19.703Z,17.45
2017-08-20T03:54:47.095Z,17.53
2017-08-20T03:57:14.496Z,17.42
2017-08-20T03:59:41.895Z,17.51
2017-08-20T04:02:09.509Z,17.54
2017-08-20T04:04:36.914Z,17.53
2017-08-20T04:07:04.316Z,17.56
2017-08-20T04:09:31.732Z,17.45
2017-08-20T04:11:59.107Z,17.47
2017-08-20T04:14:26.516Z,17.50
2017-08-20T04:16:53.903Z,17.53
2017-08-20T04:19:21.312Z,17.40
2017-08-20T04:21:48.714Z,17.48
2017-08-20T04:24:16.115Z,17.44
2017-08-20T04:26:43.506Z,17.53
2017-08-20T04:29:10.908Z,17.52
2017-08-20T04:31:38.304Z,17.44
2017-08-20T04:34:05.911Z,17.28
2017-08-20T04:36:34.082Z,17.27
2017-08-20T04:39:01.478Z,17.37
2017-08-20T04:41:28.886Z,17.44
2017-08-20T04:43:56.492Z,17.49
2017-08-20T04:46:23.887Z,17.41
2017-08-20T04:48:51.495Z,17.36
2017-08-20T04:51:18.907Z,17.25
2017-08-20T04:53:46.299Z,17.26
2017-08-20T04:56:13.914Z,17.33
2017-08-20T04:58:41.316Z,17.39
2017-08-20T05:01:08.727Z,17.47
2017-08-20T05:03:36.123Z,17.41
2017-08-20T05:06:03.526Z,17.39
2017-08-20T05:08:30.923Z,17.35
2017-08-20T05:10:58.327Z,17.38
2017-08-20T05:13:25.727Z,17.31
2017-08-20T05:15:53.118Z,17.27
2017-08-20T05:18:20.795Z,17.29
2017-08-20T05:20:48.455Z,17.32
2017-08-20T05:23:15.860Z,17.39
2017-08-20T05:25:43.254Z,17.29
2017-08-20T05:28:10.927Z,17.36
2017-08-20T05:30:38.334Z,17.35
2017-08-20T05:33:05.727Z,17.33
2017-08-20T05:35:33.130Z,17.43
2017-08-20T05:38:00.531Z,17.35
2017-08-20T05:40:27.939Z,17.38
2017-08-20T05:42:55.338Z,17.33
2017-08-20T05:45:22.962Z,17.34
2017-08-20T05:47:50.351Z,17.27
2017-08-20T05:50:17.980Z,17.06
2017-08-20T05:52:45.594Z,17.06
2017-08-20T05:55:12.996Z,17.01
2017-08-20T05:57:40.398Z,16.81
2017-08-20T06:00:07.807Z,16.76
2017-08-20T06:02:35.200Z,16.75
2017-08-20T06:05:02.602Z,16.77
2017-08-20T06:07:30.989Z,16.90
2017-08-20T06:09:58.395Z,16.97
2017-08-20T06:12:25.792Z,17.05
2017-08-20T06:14:53.214Z,16.93
2017-08-20T06:17:21.765Z,16.85
2017-08-20T06:19:49.249Z,16.68
2017-08-20T06:22:16.857Z,16.61
2017-08-20T06:24:44.482Z,16.45
2017-08-20T06:27:11.879Z,16.54
2017-08-20T06:29:39.328Z,16.62
2017-08-20T06:32:06.938Z,16.72
2017-08-20T06:34:34.550Z,16.76
2017-08-20T06:37:01.978Z,16.69
2017-08-20T06:39:29.383Z,16.80
2017-08-20T06:41:56.794Z,16.82
2017-08-20T06:44:24.188Z,16.80
2017-08-20T06:46:51.599Z,16.93
2017-08-20T06:49:18.991Z,16.92
2017-08-20T06:51:46.395Z,17.02
2017-08-20T06:54:13.789Z,17.09
2017-08-20T06:56:41.197Z,17.18
2017-08-20T06:59:08.582Z,17.22
2017-08-20T07:01:35.980Z,17.13
2017-08-20T07:04:03.365Z,17.29
2017-08-20T07:06:30.977Z,17.33
2017-08-20T07:08:58.375Z,17.26
2017-08-20T07:11:25.772Z,17.19
2017-08-20T07:13:53.411Z,17.13
2017-08-20T07:16:21.007Z,17.17
2017-08-20T07:18:48.414Z,17.16
2017-08-20T07:21:15.807Z,17.24
2017-08-20T07:23:43.211Z,17.18
2017-08-20T07:26:10.618Z,17.22
2017-08-20T07:28:38.022Z,17.30
2017-08-20T07:31:05.417Z,17.30
2017-08-20T07:33:32.902Z,17.40
2017-08-20T07:36:00.284Z,17.53
2017-08-20T07:38:27.706Z,17.58
2017-08-20T07:40:55.095Z,17.75
2017-08-20T07:43:22.787Z,17.83
2017-08-20T07:45:50.174Z,17.80
2017-08-20T07:48:17.583Z,17.83
2017-08-20T07:50:44.968Z,17.90
2017-08-20T07:53:12.372Z,17.94
2017-08-20T07:55:39.762Z,17.80
2017-08-20T07:58:07.160Z,17.73
2017-08-20T08:00:35.425Z,17.76
2017-08-20T08:03:03.132Z,17.83
2017-08-20T08:05:30.606Z,17.95
2017-08-20T08:07:58.004Z,17.94
2017-08-20T08:10:25.779Z,17.94
2017-08-20T08:12:53.500Z,18.04
2017-08-20T08:15:20.966Z,18.16
2017-08-20T08:17:49.343Z,18.01
2017-08-20T08:20:16.979Z,18.11
2017-08-20T08:22:45.097Z,18.23
2017-08-20T08:25:12.591Z,18.28
2017-08-20T08:27:39.978Z,18.34
2017-08-20T08:30:07.388Z,18.37
2017-08-20T08:32:34.779Z,18.42
2017-08-20T08:35:02.166Z,18.45
2017-08-20T08:37:29.653Z,18.55
2017-08-20T08:39:57.054Z,18.56
2017-08-20T08:42:24.448Z,18.58
2017-08-20T08:44:51.845Z,18.68
2017-08-20T08:47:19.226Z,18.75
2017-08-20T08:49:46.633Z,18.90
2017-08-20T08:52:14.032Z,18.89
2017-08-20T08:54:41.430Z,18.84
2017-08-20T08:57:08.826Z,18.85
2017-08-20T08:59:36.203Z,18.94
2017-08-20T09:02:03.598Z,19.08
2017-08-20T09:04:31.002Z,19.21
2017-08-20T09:06:58.386Z,19.28
2017-08-20T09:09:25.781Z,19.31
2017-08-20T09:11:53.167Z,19.29
2017-08-20T09:14:20.550Z,19.38
2017-08-20T09:16:48.191Z,19.43
2017-08-20T09:19:15.857Z,19.36
2017-08-20T09:21:43.249Z,19.35
2017-08-20T09:24:10.645Z,19.37
2017-08-20T09:26:38.038Z,19.44
2017-08-20T09:29:05.431Z,19.48
2017-08-20T09:31:32.831Z,19.50
2017-08-20T09:34:00.222Z,19.55
2017-08-20T09:36:27.632Z,19.52
2017-08-20T09:38:54.998Z,19.56
2017-08-20T09:41:22.398Z,19.54
2017-08-20T09:43:49.795Z,19.61
2017-08-20T09:46:17.204Z,19.59
2017-08-20T09:48:44.601Z,19.77
2017-08-20T09:51:11.999Z,19.76
2017-08-20T09:53:39.403Z,19.88
2017-08-20T09:56:06.782Z,19.88
2017-08-20T09:58:34.181Z,19.86
2017-08-20T10:01:01.797Z,19.90
2017-08-20T10:03:29.207Z,19.78
2017-08-20T10:05:56.602Z,19.80
2017-08-20T10:08:23.991Z,19.80
2017-08-20T10:10:51.401Z,19.84
2017-08-20T10:13:18.791Z,19.92
2017-08-20T10:15:46.182Z,19.97
2017-08-20T10:18:13.587Z,20.07
2017-08-20T10:20:41.246Z,20.14
2017-08-20T10:23:08.644Z,20.21
2017-08-20T10:25:36.032Z,20.09
2017-08-20T10:28:03.638Z,20.16
2017-08-20T10:30:31.248Z,20.19
2017-08-20T10:32:58.637Z,20.29
2017-08-20T10:35:26.024Z,20.27
2017-08-20T10:37:53.434Z,20.38
2017-08-20T10:40:20.850Z,20.53
2017-08-20T10:42:48.240Z,20.35
2017-08-20T10:45:15.635Z,20.31
2017-08-20T10:47:43.030Z,20.21
2017-08-20T10:50:10.419Z,20.26
2017-08-20T10:52:51.028Z,20.28
2017-08-20T10:55:18.427Z,20.34
2017-08-20T10:57:46.461Z,20.41
2017-08-20T11:00:13.933Z,20.42
2017-08-20T11:02:42.158Z,20.50
2017-08-20T11:05:09.903Z,20.55
2017-08-20T11:07:37.321Z,20.72
2017-08-20T11:10:04.708Z,20.77
2017-08-20T11:12:33.345Z,20.74
2017-08-20T11:15:01.487Z,20.75
2017-08-20T11:17:29.465Z,20.73
2017-08-20T11:19:56.866Z,20.88
2017-08-20T11:22:24.263Z,20.90
2017-08-20T11:24:51.667Z,20.90
2017-08-20T11:27:19.071Z,20.81
2017-08-20T11:29:46.677Z,20.53
2017-08-20T11:32:14.388Z,20.26
2017-08-20T11:34:41.804Z,20.09
2017-08-20T11:37:09.202Z,19.91
2017-08-20T11:39:37.163Z,19.75
2017-08-20T11:42:04.559Z,19.75
2017-08-20T11:44:31.946Z,19.67
2017-08-20T11:46:59.555Z,19.57
2017-08-20T11:49:26.944Z,19.42
2017-08-20T11:51:54.336Z,19.52
2017-08-20T11:54:21.763Z,19.42
2017-08-20T11:56:49.139Z,19.53
2017-08-20T11:59:16.818Z,19.71
2017-08-20T12:01:44.231Z,19.79
2017-08-20T12:04:11.630Z,19.82
2017-08-20T12:06:39.022Z,19.92
2017-08-20T12:09:06.403Z,19.98
2017-08-20T12:11:33.802Z,20.01
2017-08-20T12:14:01.460Z,20.10
2017-08-20T12:16:29.119Z,20.24
2017-08-20T12:18:56.507Z,20.13
2017-08-20T12:21:23.923Z,19.98
2017-08-20T12:23:51.312Z,19.82
2017-08-20T12:26:18.698Z,19.86
2017-08-20T12:28:46.109Z,19.39
2017-08-20T12:31:13.510Z,19.63
2017-08-20T12:33:40.923Z,19.69
2017-08-20T12:36:08.570Z,19.52
2017-08-20T12:38:35.974Z,19.37
2017-08-20T12:41:03.384Z,19.22
2017-08-20T12:43:30.778Z,19.01
2017-08-20T12:45:58.499Z,19.00
2017-08-20T12:48:25.891Z,19.03
2017-08-20T12:50:53.274Z,19.10
2017-08-20T12:53:20.674Z,19.09
2017-08-20T12:55:48.071Z,19.05
2017-08-20T12:58:15.476Z,19.11
2017-08-20T13:00:42.861Z,19.16
2017-08-20T13:03:10.467Z,19.16
2017-08-20T13:05:38.147Z,19.22
2017-08-20T13:08:05.542Z,19.29
2017-08-20T13:10:33.137Z,19.38
2017-08-20T13:13:00.530Z,19.41
2017-08-20T13:15:27.914Z,19.43
2017-08-20T13:17:55.314Z,19.47
2017-08-20T13:20:22.702Z,19.51
2017-08-20T13:22:50.092Z,19.63
2017-08-20T13:25:17.492Z,19.73
2017-08-20T13:27:45.158Z,19.71
2017-08-20T13:30:12.556Z,19.69
2017-08-20T13:32:39.943Z,19.06
2017-08-20T13:35:07.352Z,18.25
2017-08-20T13:37:34.730Z,17.68
2017-08-20T13:40:02.445Z,17.39
2017-08-20T13:42:30.107Z,17.13
2017-08-20T13:44:57.762Z,16.99
2017-08-20T13:47:25.151Z,16.83
2017-08-20T13:49:52.634Z,16.94
2017-08-20T13:52:20.018Z,16.98
2017-08-20T13:54:47.411Z,16.92
2017-08-20T13:57:14.804Z,16.96
2017-08-20T13:59:42.507Z,17.06
2017-08-20T14:02:09.896Z,17.07
2017-08-20T14:04:37.282Z,17.08
2017-08-20T14:07:06.744Z,17.12
2017-08-20T14:09:34.143Z,17.23
2017-08-20T14:12:01.533Z,17.20
2017-08-20T14:14:28.920Z,17.00
2017-08-20T14:16:56.311Z,16.93
2017-08-20T14:19:23.709Z,16.96
2017-08-20T14:21:51.088Z,17.01
2017-08-20T14:24:18.487Z,17.07
2017-08-20T14:26:46.178Z,17.31
2017-08-20T14:29:13.556Z,17.46
2017-08-20T14:31:40.960Z,17.55
2017-08-20T14:34:08.343Z,17.67
2017-08-20T14:36:35.734Z,17.81
2017-08-20T14:39:03.122Z,17.99
2017-08-20T14:41:30.512Z,17.96
2017-08-20T14:43:57.900Z,17.99
2017-08-20T14:46:25.299Z,18.05
2017-08-20T14:48:52.973Z,18.03
2017-08-20T14:51:20.363Z,18.13
2017-08-20T14:53:47.745Z,18.05
2017-08-20T14:56:15.150Z,18.06
2017-08-20T14:58:42.547Z,18.14
2017-08-20T15:01:09.943Z,18.23
2017-08-20T15:03:37.327Z,18.26
2017-08-20T15:06:04.710Z,18.37
2017-08-20T15:08:32.109Z,18.47
2017-08-20T15:10:59.491Z,18.42
2017-08-20T15:13:26.917Z,18.41
2017-08-20T15:15:54.299Z,18.42
2017-08-20T15:18:21.937Z,18.49
2017-08-20T15:20:49.327Z,18.58
2017-08-20T15:23:16.727Z,18.55
2017-08-20T15:25:44.111Z,18.56
2017-08-20T15:28:11.503Z,18.43
2017-08-20T15:30:38.908Z,18.24
2017-08-20T15:33:06.295Z,18.09
2017-08-20T15:35:33.687Z,18.05
2017-08-20T15:38:01.079Z,17.89
2017-08-20T15:40:28.478Z,17.83
2017-08-20T15:42:55.862Z,17.80
2017-08-20T15:45:23.555Z,17.64
2017-08-20T15:47:50.939Z,17.47
2017-08-20T15:50:18.571Z,17.43
2017-08-20T15:52:45.958Z,17.33
2017-08-20T15:55:13.354Z,17.26
2017-08-20T15:57:40.735Z,17.21
2017-08-20T16:00:08.131Z,17.18
2017-08-20T16:02:35.515Z,17.15
2017-08-20T16:05:02.911Z,17.16
2017-08-20T16:07:30.294Z,17.27
2017-08-20T16:09:57.695Z,17.27
2017-08-20T16:12:25.078Z,17.32
2017-08-20T16:14:52.479Z,17.31
2017-08-20T16:17:19.871Z,17.33
2017-08-20T16:19:47.272Z,17.33
2017-08-20T16:22:15.638Z,17.38
2017-08-20T16:24:43.033Z,17.33
2017-08-20T16:27:10.418Z,17.34
2017-08-20T16:29:37.849Z,17.32
2017-08-20T16:32:05.235Z,17.30
2017-08-20T16:34:32.626Z,17.34
2017-08-20T16:37:00.018Z,17.30
2017-08-20T16:39:27.402Z,17.31
2017-08-20T16:41:54.794Z,17.30
2017-08-20T16:44:22.174Z,17.25
2017-08-20T16:46:49.873Z,17.29
2017-08-20T16:49:17.535Z,17.50
2017-08-20T16:51:44.926Z,17.53
2017-08-20T16:54:12.315Z,17.57
2017-08-20T16:56:39.716Z,17.67
2017-08-20T16:59:07.358Z,17.75
2017-08-20T17:01:34.758Z,17.82
2017-08-20T17:04:02.143Z,17.78
2017-08-20T17:06:29.541Z,17.79
2017-08-20T17:08:56.931Z,17.87
2017-08-20T17:11:24.643Z,17.89
2017-08-20T17:13:52.035Z,17.87
2017-08-20T17:16:19.422Z,17.92
2017-08-20T17:18:46.820Z,18.05
2017-08-20T17:21:14.471Z,18.06
2017-08-20T17:23:41.862Z,18.02
2017-08-20T17:26:09.256Z,18.08
2017-08-20T17:28:36.647Z,18.08
2017-08-20T17:31:04.038Z,18.05
2017-08-20T17:33:31.439Z,17.91
2017-08-20T17:35:58.827Z,17.97
2017-08-20T17:38:26.212Z,17.86
2017-08-20T17:40:53.614Z,17.81
2017-08-20T17:43:20.994Z,17.69
2017-08-20T17:45:48.425Z,17.76
2017-08-20T17:48:15.824Z,17.70
2017-08-20T17:50:43.204Z,17.67
2017-08-20T17:53:10.605Z,17.69
2017-08-20T17:55:37.983Z,17.70
2017-08-20T17:58:05.608Z,17.76
2017-08-20T18:00:33.000Z,17.86
2017-08-20T18:03:00.387Z,17.88
2017-08-20T18:05:27.842Z,17.99
2017-08-20T18:07:55.265Z,18.11
2017-08-20T18:10:22.713Z,18.00
2017-08-20T18:12:50.085Z,17.98
2017-08-20T18:15:17.562Z,17.96
2017-08-20T18:17:44.956Z,17.88
2017-08-20T18:20:12.418Z,17.97
2017-08-20T18:22:40.041Z,17.84
2017-08-20T18:25:07.434Z,17.80
2017-08-20T18:27:34.827Z,17.73
2017-08-20T18:30:02.222Z,17.60
2017-08-20T18:32:29.626Z,17.70
2017-08-20T18:34:57.031Z,17.66
2017-08-20T18:37:24.443Z,17.58
2017-08-20T18:39:51.836Z,17.66
2017-08-20T18:42:19.230Z,17.79
2017-08-20T18:44:46.625Z,17.76
2017-08-20T18:47:14.015Z,17.92
2017-08-20T18:49:41.414Z,17.88
2017-08-20T18:52:08.803Z,17.91
2017-08-20T18:54:36.202Z,17.95
2017-08-20T18:57:03.598Z,17.92
2017-08-20T18:59:30.997Z,17.99
2017-08-20T19:01:58.391Z,17.99
2017-08-20T19:04:25.784Z,17.98
2017-08-20T19:06:53.162Z,17.86
2017-08-20T19:09:20.823Z,17.91
2017-08-20T19:11:48.213Z,17.93
2017-08-20T19:14:15.599Z,17.91
2017-08-20T19:16:42.989Z,17.83
2017-08-20T19:19:10.390Z,17.84
2017-08-20T19:21:37.784Z,17.85
2017-08-20T19:24:05.172Z,17.82
2017-08-20T19:26:32.556Z,17.92
2017-08-20T19:28:59.958Z,17.91
2017-08-20T19:31:27.349Z,17.95
2017-08-20T19:33:54.763Z,17.75
2017-08-20T19:36:22.158Z,17.81
2017-08-20T19:38:49.538Z,17.55
2017-08-20T19:41:17.247Z,17.43
2017-08-20T19:43:44.644Z,17.53
2017-08-20T19:46:12.042Z,17.64
2017-08-20T19:48:39.645Z,17.79
2017-08-20T19:51:07.035Z,17.55
2017-08-20T19:53:34.419Z,17.54
2017-08-20T19:56:01.811Z,17.36
2017-08-20T19:58:29.199Z,17.45
2017-08-20T20:00:56.595Z,17.49
2017-08-20T20:03:24.011Z,17.47
2017-08-20T20:05:51.396Z,17.42
2017-08-20T20:08:18.782Z,17.35
2017-08-20T20:10:46.171Z,17.29
2017-08-20T20:13:13.879Z,17.32
2017-08-20T20:15:41.269Z,17.23
2017-08-20T20:18:08.674Z,17.15
2017-08-20T20:20:36.096Z,17.14
2017-08-20T20:23:03.495Z,17.02
2017-08-20T20:25:30.874Z,17.11
2017-08-20T20:27:58.276Z,17.03
2017-08-20T20:30:25.655Z,17.04
2017-08-20T20:32:53.072Z,16.99
2017-08-20T20:35:20.454Z,17.04
2017-08-20T20:37:47.851Z,17.09
2017-08-20T20:40:15.503Z,17.09
2017-08-20T20:42:42.884Z,17.17
2017-08-20T20:45:10.267Z,17.24
2017-08-20T20:47:37.667Z,17.24
2017-08-20T20:50:05.063Z,17.30
2017-08-20T20:52:32.443Z,17.20
2017-08-20T20:55:28.562Z,17.29
2017-08-20T20:57:56.261Z,17.20
2017-08-20T21:00:23.675Z,17.32
2017-08-20T21:02:51.079Z,17.31
2017-08-20T21:05:18.463Z,17.33
2017-08-20T21:07:45.856Z,17.44
2017-08-20T21:10:13.273Z,17.46
2017-08-20T21:12:40.647Z,17.47
2017-08-20T21:15:08.047Z,17.38
2017-08-20T21:17:35.431Z,17.53
2017-08-20T21:20:02.892Z,17.47
2017-08-20T21:22:30.520Z,17.36
2017-08-20T21:24:57.914Z,17.24
2017-08-20T21:27:25.307Z,17.28
2017-08-20T21:29:52.701Z,17.30
2017-08-20T21:32:20.600Z,17.37
2017-08-20T21:34:48.042Z,17.43
2017-08-20T21:37:15.411Z,17.51
2017-08-20T21:39:42.812Z,17.58
2017-08-20T21:42:10.218Z,17.64
2017-08-20T21:44:37.610Z,17.48
2017-08-20T21:47:05.218Z,17.60
2017-08-20T21:49:32.614Z,17.47
2017-08-20T21:51:59.999Z,17.50
2017-08-20T21:54:27.397Z,17.49
2017-08-20T21:56:54.791Z,17.43
2017-08-20T21:59:22.275Z,17.41
2017-08-20T22:01:49.675Z,17.50
2017-08-20T22:04:17.057Z,17.57
2017-08-20T22:06:44.446Z,17.64
2017-08-20T22:09:11.839Z,17.70
2017-08-20T22:11:39.231Z,17.63
2017-08-20T22:14:06.617Z,17.63
2017-08-20T22:16:34.018Z,17.66
2017-08-20T22:19:01.395Z,17.66
2017-08-20T22:21:28.786Z,17.56
2017-08-20T22:23:56.432Z,17.55
2017-08-20T22:26:23.818Z,17.60
2017-08-20T22:28:51.213Z,17.58
2017-08-20T22:31:18.595Z,17.55
2017-08-20T22:33:45.987Z,17.63
2017-08-20T22:36:14.137Z,17.66
2017-08-20T22:38:41.913Z,17.66
2017-08-20T22:41:09.355Z,17.61
2017-08-20T22:43:36.759Z,17.46
2017-08-20T22:46:04.454Z,17.48
2017-08-20T22:48:31.847Z,17.51
2017-08-20T22:50:59.247Z,17.56
2017-08-20T22:53:26.933Z,17.58
2017-08-20T22:55:54.314Z,17.56
2017-08-20T22:58:21.947Z,17.61
2017-08-20T23:00:49.608Z,17.64
2017-08-20T23:03:17.008Z,17.52
2017-08-20T23:05:44.395Z,17.43
2017-08-20T23:08:12.080Z,17.47
2017-08-20T23:10:39.486Z,17.39
2017-08-20T23:13:06.879Z,17.47
2017-08-20T23:15:34.274Z,17.41
2017-08-20T23:18:01.671Z,17.33
2017-08-20T23:20:29.059Z,17.34
2017-08-20T23:22:56.466Z,17.33
2017-08-20T23:25:23.850Z,17.43
2017-08-20T23:27:51.242Z,17.34
2017-08-20T23:30:18.643Z,17.38
2017-08-20T23:32:46.022Z,17.27
2017-08-20T23:35:13.428Z,17.27
2017-08-20T23:37:40.814Z,17.29
2017-08-20T23:40:08.503Z,17.27
2017-08-20T23:42:36.166Z,17.27
2017-08-20T23:45:03.833Z,17.21
2017-08-20T23:47:31.223Z,17.23
2017-08-20T23:49:58.943Z,17.18
2017-08-20T23:52:26.338Z,17.15
2017-08-20T23:54:53.730Z,17.13
2017-08-20T23:57:21.135Z,17.04
2017-08-20T23:59:48.530Z,17.11
